Time,TemperatureF,DewpointF,PressureIn,WindDirection,WindDirectionDegrees,WindSpeedMPH,WindSpeedGustMPH,Humidity,HourlyPrecipIn,Conditions,Clouds,dailyrainin,SolarRadiationWatts/m^2,SoftwareType,DateUTC
2013-07-14 00:00:00,68.0,64.0,-100.00,ENE,67,0.0,-999.0,87,-99.99,,,-99.99,0.000000,,2013-07-14 04:00:00,
2013-07-14 00:32:00,68.0,64.0,-100.00,ENE,67,0.0,-999.0,87,-99.99,,,-99.99,0.000000,,2013-07-14 04:32:00,
2013-07-14 00:42:00,68.0,64.0,-100.00,ENE,67,0.0,-999.0,87,-99.99,,,-99.99,0.000000,,2013-07-14 04:42:00,
2013-07-14 00:54:00,68.0,64.0,-100.00,ENE,67,0.0,-999.0,87,-99.99,,,-99.99,0.000000,,2013-07-14 04:54:00,
2013-07-14 01:00:00,66.0,63.0,-100.00,NNE,22,0.0,-999.0,89,-99.99,,,-99.99,0.000000,,2013-07-14 05:00:00,
2013-07-14 01:32:00,66.0,63.0,-100.00,NNE,22,0.0,-999.0,89,-99.99,,,-99.99,0.000000,,2013-07-14 05:32:00,
2013-07-14 01:43:00,66.0,63.0,-100.00,NNE,22,0.0,-999.0,89,-99.99,,,-99.99,0.000000,,2013-07-14 05:43:00,
2013-07-14 01:53:00,66.0,63.0,-100.00,NNE,22,0.0,-999.0,89,-99.99,,,-99.99,0.000000,,2013-07-14 05:53:00,
2013-07-14 02:00:00,66.0,63.0,-100.00,ENE,67,0.0,-999.0,90,-99.99,,,-99.99,0.000000,,2013-07-14 06:00:00,
2013-07-14 02:42:00,66.0,63.0,-100.00,ENE,67,0.0,-999.0,90,-99.99,,,-99.99,0.000000,,2013-07-14 06:42:00,
2013-07-14 02:53:00,66.0,63.0,-100.00,ENE,67,0.0,-999.0,90,-99.99,,,-99.99,0.000000,,2013-07-14 06:53:00,
2013-07-14 03:00:00,65.0,62.0,-100.00,NE,45,0.0,-999.0,90,-99.99,,,-99.99,0.000000,,2013-07-14 07:00:00,
2013-07-14 03:43:00,65.0,62.0,-100.00,NE,45,0.0,-999.0,90,-99.99,,,-99.99,0.000000,,2013-07-14 07:43:00,
2013-07-14 03:53:00,65.0,62.0,-100.00,NE,45,0.0,-999.0,90,-99.99,,,-99.99,0.000000,,2013-07-14 07:53:00,
2013-07-14 04:00:00,64.0,62.0,-100.00,NE,45,0.0,-999.0,91,-99.99,,,-99.99,0.000000,,2013-07-14 08:00:00,
2013-07-14 04:42:00,64.0,62.0,-100.00,NE,45,0.0,-999.0,91,-99.99,,,-99.99,0.000000,,2013-07-14 08:42:00,
2013-07-14 04:53:00,64.0,62.0,-100.00,NE,45,0.0,-999.0,91,-99.99,,,-99.99,0.000000,,2013-07-14 08:53:00,
2013-07-14 05:00:00,64.0,62.0,-100.00,SSE,157,0.0,-999.0,92,-99.99,,,-99.99,0.000000,,2013-07-14 09:00:00,
2013-07-14 05:42:00,64.0,62.0,-100.00,SSE,157,0.0,-999.0,92,-99.99,,,-99.99,0.000000,,2013-07-14 09:42:00,
2013-07-14 05:53:00,64.0,62.0,-100.00,SSE,157,0.0,-999.0,92,-99.99,,,-99.99,0.000000,,2013-07-14 09:53:00,
2013-07-14 06:00:00,63.0,61.0,-100.00,NE,45,0.0,-999.0,92,-99.99,,,-99.99,0.000000,,2013-07-14 10:00:00,
2013-07-14 06:42:00,63.0,61.0,-100.00,NE,45,0.0,-999.0,92,-99.99,,,-99.99,0.000000,,2013-07-14 10:42:00,
2013-07-14 06:53:00,63.0,61.0,-100.00,NE,45,0.0,-999.0,92,-99.99,,,-99.99,0.000000,,2013-07-14 10:53:00,
2013-07-14 07:00:00,63.0,61.0,-100.00,SE,135,0.0,-999.0,92,-99.99,,,-99.99,20.879999,,2013-07-14 11:00:00,
2013-07-14 07:43:00,63.0,61.0,-100.00,SE,135,0.0,-999.0,92,-99.99,,,-99.99,20.879999,,2013-07-14 11:43:00,
2013-07-14 07:53:00,63.0,61.0,-100.00,SE,135,0.0,-999.0,92,-99.99,,,-99.99,20.879999,,2013-07-14 11:53:00,
2013-07-14 08:00:00,69.0,66.0,-100.00,ENE,67,0.0,-999.0,90,-99.99,,,-99.99,146.160004,,2013-07-14 12:00:00,
2013-07-14 08:43:00,69.0,66.0,-100.00,ENE,67,0.0,-999.0,90,-99.99,,,-99.99,146.160004,,2013-07-14 12:43:00,
2013-07-14 08:53:00,69.0,66.0,-100.00,ENE,67,0.0,-999.0,90,-99.99,,,-99.99,146.160004,,2013-07-14 12:53:00,
2013-07-14 09:00:00,75.0,69.0,-100.00,ESE,112,0.0,-999.0,82,-99.99,,,-99.99,309.720001,,2013-07-14 13:00:00,
2013-07-14 09:42:00,75.0,69.0,-100.00,ESE,112,0.0,-999.0,82,-99.99,,,-99.99,309.720001,,2013-07-14 13:42:00,
2013-07-14 09:53:00,75.0,69.0,-100.00,ESE,112,0.0,-999.0,82,-99.99,,,-99.99,309.720001,,2013-07-14 13:53:00,
2013-07-14 10:00:00,79.0,70.0,-100.00,ESE,112,2.0,-999.0,75,-99.99,,,-99.99,470.959991,,2013-07-14 14:00:00,
2013-07-14 10:43:00,79.0,70.0,-100.00,ESE,112,2.0,-999.0,75,-99.99,,,-99.99,470.959991,,2013-07-14 14:43:00,
2013-07-14 10:53:00,79.0,70.0,-100.00,ESE,112,2.0,-999.0,75,-99.99,,,-99.99,470.959991,,2013-07-14 14:53:00,
2013-07-14 11:00:00,82.0,71.0,-100.00,ESE,112,2.0,-999.0,69,-99.99,,,-99.99,625.239990,,2013-07-14 15:00:00,
2013-07-14 11:42:00,82.0,71.0,-100.00,ESE,112,2.0,-999.0,69,-99.99,,,-99.99,625.239990,,2013-07-14 15:42:00,
2013-07-14 11:53:00,82.0,71.0,-100.00,ESE,112,2.0,-999.0,69,-99.99,,,-99.99,625.239990,,2013-07-14 15:53:00,
2013-07-14 12:00:00,83.0,70.0,-100.00,ESE,112,3.0,-999.0,65,-99.99,,,-99.99,718.039978,,2013-07-14 16:00:00,
2013-07-14 12:43:00,83.0,70.0,-100.00,ESE,112,3.0,-999.0,65,-99.99,,,-99.99,718.039978,,2013-07-14 16:43:00,
2013-07-14 12:54:00,83.0,70.0,-100.00,ESE,112,3.0,-999.0,65,-99.99,,,-99.99,718.039978,,2013-07-14 16:54:00,
2013-07-14 13:00:00,84.0,69.0,-100.00,ESE,112,4.0,-999.0,61,-99.99,,,-99.99,820.119995,,2013-07-14 17:00:00,
2013-07-14 13:43:00,84.0,69.0,-100.00,ESE,112,4.0,-999.0,61,-99.99,,,-99.99,820.119995,,2013-07-14 17:43:00,
2013-07-14 13:53:00,84.0,69.0,-100.00,ESE,112,4.0,-999.0,61,-99.99,,,-99.99,820.119995,,2013-07-14 17:53:00,
2013-07-14 14:00:00,84.0,69.0,-100.00,East,90,4.0,-999.0,60,-99.99,,,-99.99,841.000000,,2013-07-14 18:00:00,
2013-07-14 14:42:00,84.0,69.0,-100.00,East,90,4.0,-999.0,60,-99.99,,,-99.99,841.000000,,2013-07-14 18:42:00,
2013-07-14 14:52:00,84.0,69.0,-100.00,East,90,4.0,-999.0,60,-99.99,,,-99.99,841.000000,,2013-07-14 18:52:00,
2013-07-14 15:00:00,85.0,69.0,-100.00,ESE,112,2.0,-999.0,58,-99.99,,,-99.99,770.239990,,2013-07-14 19:00:00,
2013-07-14 15:43:00,85.0,69.0,-100.00,ESE,112,2.0,-999.0,58,-99.99,,,-99.99,770.239990,,2013-07-14 19:43:00,
2013-07-14 15:53:00,85.0,69.0,-100.00,ESE,112,2.0,-999.0,58,-99.99,,,-99.99,770.239990,,2013-07-14 19:53:00,
2013-07-14 16:00:00,83.0,68.0,-100.00,ESE,112,2.0,-999.0,60,-99.99,,,-99.99,452.399994,,2013-07-14 20:00:00,
2013-07-14 16:43:00,83.0,68.0,-100.00,ESE,112,2.0,-999.0,60,-99.99,,,-99.99,452.399994,,2013-07-14 20:43:00,
2013-07-14 16:53:00,83.0,68.0,-100.00,ESE,112,2.0,-999.0,60,-99.99,,,-99.99,452.399994,,2013-07-14 20:53:00,
2013-07-14 17:00:00,83.0,68.0,-100.00,ESE,112,3.0,-999.0,62,-99.99,,,-99.99,388.600006,,2013-07-14 21:00:00,
2013-07-14 17:43:00,83.0,68.0,-100.00,ESE,112,3.0,-999.0,62,-99.99,,,-99.99,388.600006,,2013-07-14 21:43:00,
2013-07-14 17:53:00,83.0,68.0,-100.00,ESE,112,3.0,-999.0,62,-99.99,,,-99.99,388.600006,,2013-07-14 21:53:00,
2013-07-14 18:00:00,83.0,69.0,-100.00,ESE,112,2.0,-999.0,62,-99.99,,,-99.99,404.839996,,2013-07-14 22:00:00,
2013-07-14 18:42:00,83.0,69.0,-100.00,ESE,112,2.0,-999.0,62,-99.99,,,-99.99,404.839996,,2013-07-14 22:42:00,
2013-07-14 18:53:00,83.0,69.0,-100.00,ESE,112,2.0,-999.0,62,-99.99,,,-99.99,404.839996,,2013-07-14 22:53:00,
2013-07-14 19:00:00,81.0,69.0,-100.00,SE,135,4.0,-999.0,66,-99.99,,,-99.99,228.520004,,2013-07-14 23:00:00,
2013-07-14 19:42:00,81.0,69.0,-100.00,SE,135,4.0,-999.0,66,-99.99,,,-99.99,228.520004,,2013-07-14 23:42:00,
2013-07-14 19:53:00,81.0,69.0,-100.00,SE,135,4.0,-999.0,66,-99.99,,,-99.99,228.520004,,2013-07-14 23:53:00,
2013-07-14 21:00:00,79.0,68.0,-100.00,ESE,112,2.0,-999.0,69,-99.99,,,-99.99,56.840000,,2013-07-15 01:00:00,
2013-07-14 21:32:00,79.0,68.0,-100.00,ESE,112,2.0,-999.0,69,-99.99,,,-99.99,56.840000,,2013-07-15 01:32:00,
2013-07-14 21:43:00,79.0,68.0,-100.00,ESE,112,2.0,-999.0,69,-99.99,,,-99.99,56.840000,,2013-07-15 01:43:00,
2013-07-14 21:53:00,79.0,68.0,-100.00,ESE,112,2.0,-999.0,69,-99.99,,,-99.99,56.840000,,2013-07-15 01:53:00,
2013-07-14 22:00:00,75.0,68.0,-100.00,ESE,112,1.0,-999.0,80,-99.99,,,-99.99,1.160000,,2013-07-15 02:00:00,
2013-07-14 22:42:00,75.0,68.0,-100.00,ESE,112,1.0,-999.0,80,-99.99,,,-99.99,1.160000,,2013-07-15 02:42:00,
2013-07-14 22:53:00,75.0,68.0,-100.00,ESE,112,1.0,-999.0,80,-99.99,,,-99.99,1.160000,,2013-07-15 02:53:00,
2013-07-14 23:00:00,73.0,70.0,-100.00,ESE,112,1.0,-999.0,88,-99.99,,,-99.99,0.000000,,2013-07-15 03:00:00,
2013-07-14 23:43:00,73.0,70.0,-100.00,ESE,112,1.0,-999.0,88,-99.99,,,-99.99,0.000000,,2013-07-15 03:43:00,
2013-07-14 23:53:00,73.0,70.0,-100.00,ESE,112,1.0,-999.0,88,-99.99,,,-99.99,0.000000,,2013-07-15 03:53:00,